sensor_id;sensor_type;location;lat;lon;timestamp;temperature;humidity
15184;DHT22;7693;49.266;7.104;2022-09-09T04:25:53;15.10;99.90
15184;DHT22;7693;49.266;7.104;2022-09-09T04:28:22;15.10;99.90
15184;DHT22;7693;49.266;7.104;2022-09-09T04:30:48;15.10;99.90
15184;DHT22;7693;49.266;7.104;2022-09-09T04:33:14;15.10;99.90
15184;DHT22;7693;49.266;7.104;2022-09-09T04:35:45;15.10;99.90
15184;DHT22;7693;49.266;7.104;2022-09-09T04:38:12;15.20;99.90
15184;DHT22;7693;49.266;7.104;2022-09-09T04:40:38;15.20;99.90
15184;DHT22;7693;49.266;7.104;2022-09-09T04:43:08;15.30;99.90
15184;DHT22;7693;49.266;7.104;2022-09-09T04:45:35;15.30;99.90
15184;DHT22;7693;49.266;7.104;2022-09-09T04:48:00;15.30;99.90
15184;DHT22;7693;49.266;7.104;2022-09-09T04:50:27;15.30;99.90
15184;DHT22;7693;49.266;7.104;2022-09-09T04:52:53;15.40;99.90
15184;DHT22;7693;49.266;7.104;2022-09-09T04:55:19;15.40;99.90
15184;DHT22;7693;49.266;7.104;2022-09-09T04:57:45;15.40;99.90
15184;DHT22;7693;49.266;7.104;2022-09-09T05:00:12;15.40;99.90
15184;DHT22;7693;49.266;7.104;2022-09-09T05:02:38;15.40;99.90
15184;DHT22;7693;49.266;7.104;2022-09-09T05:05:05;15.40;99.90
15184;DHT22;7693;49.266;7.104;2022-09-09T05:07:31;15.40;99.90
15184;DHT22;7693;49.266;7.104;2022-09-09T05:09:56;15.40;99.90
15184;DHT22;7693;49.266;7.104;2022-09-09T05:12:23;15.50;99.90
15184;DHT22;7693;49.266;7.104;2022-09-09T05:14:53;15.50;99.90
15184;DHT22;7693;49.266;7.104;2022-09-09T05:17:19;15.50;99.90
15184;DHT22;7693;49.266;7.104;2022-09-09T05:19:44;15.50;99.90
15184;DHT22;7693;49.266;7.104;2022-09-09T05:22:10;15.50;99.90
15184;DHT22;7693;49.266;7.104;2022-09-09T05:24:37;15.60;99.90
15184;DHT22;7693;49.266;7.104;2022-09-09T05:27:04;15.60;99.90
15184;DHT22;7693;49.266;7.104;2022-09-09T05:29:29;15.60;99.90
15184;DHT22;7693;49.266;7.104;2022-09-09T05:31:55;15.60;99.90
15184;DHT22;7693;49.266;7.104;2022-09-09T05:34:20;15.60;99.90
15184;DHT22;7693;49.266;7.104;2022-09-09T05:36:46;15.60;99.90
15184;DHT22;7693;49.266;7.104;2022-09-09T05:39:12;15.60;99.90
15184;DHT22;7693;49.266;7.104;2022-09-09T05:41:38;15.60;99.90
15184;DHT22;7693;49.266;7.104;2022-09-09T05:44:04;15.60;99.90
15184;DHT22;7693;49.266;7.104;2022-09-09T05:46:30;15.60;99.90
15184;DHT22;7693;49.266;7.104;2022-09-09T05:48:56;15.60;99.90
15184;DHT22;7693;49.266;7.104;2022-09-09T05:51:25;15.60;99.90
15184;DHT22;7693;49.266;7.104;2022-09-09T05:53:52;15.70;99.90
15184;DHT22;7693;49.266;7.104;2022-09-09T05:56:22;15.70;99.90
15184;DHT22;7693;49.266;7.104;2022-09-09T05:58:50;15.80;99.90
15184;DHT22;7693;49.266;7.104;2022-09-09T06:01:19;15.80;99.90
15184;DHT22;7693;49.266;7.104;2022-09-09T06:03:46;15.80;99.90
15184;DHT22;7693;49.266;7.104;2022-09-09T06:06:14;15.90;99.90
15184;DHT22;7693;49.266;7.104;2022-09-09T06:08:42;15.90;99.90
15184;DHT22;7693;49.266;7.104;2022-09-09T06:11:21;15.90;99.90
15184;DHT22;7693;49.266;7.104;2022-09-09T06:13:47;16.00;99.90
15184;DHT22;7693;49.266;7.104;2022-09-09T06:16:15;16.00;99.90
15184;DHT22;7693;49.266;7.104;2022-09-09T06:18:41;16.00;99.90
15184;DHT22;7693;49.266;7.104;2022-09-09T06:21:11;16.00;99.90
15184;DHT22;7693;49.266;7.104;2022-09-09T06:23:39;16.00;99.90
15184;DHT22;7693;49.266;7.104;2022-09-09T06:26:12;16.10;99.90
15184;DHT22;7693;49.266;7.104;2022-09-09T06:28:38;16.10;99.90
15184;DHT22;7693;49.266;7.104;2022-09-09T06:31:06;16.10;99.90
15184;DHT22;7693;49.266;7.104;2022-09-09T06:33:37;16.10;99.90
15184;DHT22;7693;49.266;7.104;2022-09-09T06:36:07;16.10;99.90
15184;DHT22;7693;49.266;7.104;2022-09-09T06:38:35;16.10;99.90
15184;DHT22;7693;49.266;7.104;2022-09-09T06:41:01;16.10;99.90
15184;DHT22;7693;49.266;7.104;2022-09-09T06:43:27;16.10;99.90
15184;DHT22;7693;49.266;7.104;2022-09-09T06:48:23;16.20;99.90
15184;DHT22;7693;49.266;7.104;2022-09-09T06:50:51;16.20;99.90
15184;DHT22;7693;49.266;7.104;2022-09-09T06:53:25;16.20;99.90
15184;DHT22;7693;49.266;7.104;2022-09-09T06:55:51;16.20;99.90
15184;DHT22;7693;49.266;7.104;2022-09-09T06:58:17;16.20;99.90
15184;DHT22;7693;49.266;7.104;2022-09-09T07:00:42;16.20;99.90
15184;DHT22;7693;49.266;7.104;2022-09-09T07:03:10;16.20;99.90
15184;DHT22;7693;49.266;7.104;2022-09-09T07:05:36;16.30;99.90
15184;DHT22;7693;49.266;7.104;2022-09-09T07:08:02;16.30;99.90
15184;DHT22;7693;49.266;7.104;2022-09-09T07:10:27;16.40;99.90
15184;DHT22;7693;49.266;7.104;2022-09-09T07:12:53;16.40;99.90
15184;DHT22;7693;49.266;7.104;2022-09-09T07:15:20;16.40;99.90
15184;DHT22;7693;49.266;7.104;2022-09-09T07:17:46;16.40;99.90
15184;DHT22;7693;49.266;7.104;2022-09-09T07:20:13;16.50;99.90
15184;DHT22;7693;49.266;7.104;2022-09-09T07:22:40;16.50;99.90
15184;DHT22;7693;49.266;7.104;2022-09-09T07:25:06;16.50;99.90
15184;DHT22;7693;49.266;7.104;2022-09-09T07:27:32;16.50;99.90
15184;DHT22;7693;49.266;7.104;2022-09-09T07:29:58;16.60;99.90
15184;DHT22;7693;49.266;7.104;2022-09-09T07:32:23;16.70;99.90
15184;DHT22;7693;49.266;7.104;2022-09-09T07:34:51;16.70;99.90
15184;DHT22;7693;49.266;7.104;2022-09-09T07:37:16;16.80;99.90
15184;DHT22;7693;49.266;7.104;2022-09-09T07:39:43;16.80;99.90
15184;DHT22;7693;49.266;7.104;2022-09-09T07:42:09;16.80;99.90
15184;DHT22;7693;49.266;7.104;2022-09-09T07:44:37;16.90;99.90
15184;DHT22;7693;49.266;7.104;2022-09-09T07:47:05;16.90;99.90
15184;DHT22;7693;49.266;7.104;2022-09-09T07:49:31;16.90;99.90
15184;DHT22;7693;49.266;7.104;2022-09-09T07:51:58;17.00;99.90
15184;DHT22;7693;49.266;7.104;2022-09-09T07:54:23;17.00;99.90
15184;DHT22;7693;49.266;7.104;2022-09-09T07:56:50;17.00;99.90
15184;DHT22;7693;49.266;7.104;2022-09-09T07:59:16;17.00;99.90
15184;DHT22;7693;49.266;7.104;2022-09-09T08:01:50;17.10;99.90
15184;DHT22;7693;49.266;7.104;2022-09-09T08:04:18;17.20;99.90
15184;DHT22;7693;49.266;7.104;2022-09-09T08:06:47;17.20;99.90
15184;DHT22;7693;49.266;7.104;2022-09-09T08:09:14;17.20;99.90
15184;DHT22;7693;49.266;7.104;2022-09-09T08:11:40;17.40;99.90
15184;DHT22;7693;49.266;7.104;2022-09-09T08:14:07;17.40;99.90
15184;DHT22;7693;49.266;7.104;2022-09-09T08:16:35;17.40;99.90
15184;DHT22;7693;49.266;7.104;2022-09-09T08:19:02;17.50;99.90
15184;DHT22;7693;49.266;7.104;2022-09-09T08:21:30;17.50;99.90
15184;DHT22;7693;49.266;7.104;2022-09-09T08:23:58;17.60;99.90
15184;DHT22;7693;49.266;7.104;2022-09-09T08:26:26;17.60;99.90
15184;DHT22;7693;49.266;7.104;2022-09-09T08:28:55;17.70;99.90
15184;DHT22;7693;49.266;7.104;2022-09-09T08:31:36;17.80;99.90
15184;DHT22;7693;49.266;7.104;2022-09-09T08:34:04;17.80;99.90
15184;DHT22;7693;49.266;7.104;2022-09-09T08:36:32;17.80;99.90
15184;DHT22;7693;49.266;7.104;2022-09-09T08:38:59;17.80;99.90
15184;DHT22;7693;49.266;7.104;2022-09-09T08:50:48;17.80;99.90
15184;DHT22;7693;49.266;7.104;2022-09-09T08:53:27;17.80;99.90
15184;DHT22;7693;49.266;7.104;2022-09-09T08:56:00;17.80;99.90
15184;DHT22;7693;49.266;7.104;2022-09-09T08:58:28;17.80;99.90
15184;DHT22;7693;49.266;7.104;2022-09-09T09:09:21;17.90;99.90
15184;DHT22;7693;49.266;7.104;2022-09-09T09:11:49;17.90;99.90
15184;DHT22;7693;49.266;7.104;2022-09-09T09:14:23;18.00;99.90
15184;DHT22;7693;49.266;7.104;2022-09-09T09:17:00;18.00;99.90
15184;DHT22;7693;49.266;7.104;2022-09-09T09:19:28;18.10;99.90
15184;DHT22;7693;49.266;7.104;2022-09-09T09:22:24;18.20;99.90
15184;DHT22;7693;49.266;7.104;2022-09-09T09:25:18;18.30;99.90
15184;DHT22;7693;49.266;7.104;2022-09-09T09:30:52;18.50;99.90
15184;DHT22;7693;49.266;7.104;2022-09-09T09:33:38;18.70;99.90
15184;DHT22;7693;49.266;7.104;2022-09-09T09:36:07;18.80;99.90
15184;DHT22;7693;49.266;7.104;2022-09-09T09:38:34;18.90;99.90
15184;DHT22;7693;49.266;7.104;2022-09-09T09:41:00;18.80;99.90
15184;DHT22;7693;49.266;7.104;2022-09-09T09:43:28;18.80;99.90
15184;DHT22;7693;49.266;7.104;2022-09-09T09:45:54;18.70;99.90
15184;DHT22;7693;49.266;7.104;2022-09-09T09:48:20;18.60;99.90
15184;DHT22;7693;49.266;7.104;2022-09-09T09:50:51;18.50;99.90
15184;DHT22;7693;49.266;7.104;2022-09-09T09:53:27;18.50;99.90
15184;DHT22;7693;49.266;7.104;2022-09-09T09:55:55;18.50;99.90
15184;DHT22;7693;49.266;7.104;2022-09-09T11:57:36;18.10;99.90
15184;DHT22;7693;49.266;7.104;2022-09-09T12:00:03;18.10;99.90
15184;DHT22;7693;49.266;7.104;2022-09-09T12:02:29;18.00;99.90
15184;DHT22;7693;49.266;7.104;2022-09-09T12:05:10;18.00;99.90
15184;DHT22;7693;49.266;7.104;2022-09-09T12:07:54;17.90;99.90
15184;DHT22;7693;49.266;7.104;2022-09-09T12:12:50;17.80;99.90
15184;DHT22;7693;49.266;7.104;2022-09-09T12:15:17;17.80;99.90
15184;DHT22;7693;49.266;7.104;2022-09-09T12:17:48;17.70;99.90
15184;DHT22;7693;49.266;7.104;2022-09-09T12:23:20;17.70;99.90
15184;DHT22;7693;49.266;7.104;2022-09-09T12:25:57;17.60;99.90
15184;DHT22;7693;49.266;7.104;2022-09-09T12:39:47;18.00;99.90
15184;DHT22;7693;49.266;7.104;2022-09-09T12:42:19;18.20;99.90
15184;DHT22;7693;49.266;7.104;2022-09-09T12:44:58;18.50;99.90
15184;DHT22;7693;49.266;7.104;2022-09-09T12:49:57;18.70;99.90
15184;DHT22;7693;49.266;7.104;2022-09-09T12:52:29;18.70;99.90
15184;DHT22;7693;49.266;7.104;2022-09-09T12:54:57;18.70;99.90
15184;DHT22;7693;49.266;7.104;2022-09-09T12:57:24;18.70;99.90
15184;DHT22;7693;49.266;7.104;2022-09-09T12:59:51;18.60;99.90
15184;DHT22;7693;49.266;7.104;2022-09-09T13:02:21;18.50;99.90
15184;DHT22;7693;49.266;7.104;2022-09-09T13:04:47;18.40;99.90
15184;DHT22;7693;49.266;7.104;2022-09-09T13:07:16;18.30;99.90
15184;DHT22;7693;49.266;7.104;2022-09-09T13:09:43;18.20;99.90
15184;DHT22;7693;49.266;7.104;2022-09-09T13:12:14;18.10;99.90
15184;DHT22;7693;49.266;7.104;2022-09-09T13:14:43;18.30;99.90
15184;DHT22;7693;49.266;7.104;2022-09-09T13:17:26;18.30;99.90
15184;DHT22;7693;49.266;7.104;2022-09-09T13:19:55;18.30;99.90
15184;DHT22;7693;49.266;7.104;2022-09-09T13:22:23;18.40;99.90
15184;DHT22;7693;49.266;7.104;2022-09-09T13:25:05;18.30;99.90
15184;DHT22;7693;49.266;7.104;2022-09-09T13:27:41;18.30;99.90
15184;DHT22;7693;49.266;7.104;2022-09-09T13:30:40;18.20;99.90
15184;DHT22;7693;49.266;7.104;2022-09-09T13:36:05;18.40;99.90
15184;DHT22;7693;49.266;7.104;2022-09-09T13:41:20;18.70;99.90
15184;DHT22;7693;49.266;7.104;2022-09-09T13:43:47;18.70;99.90
15184;DHT22;7693;49.266;7.104;2022-09-09T13:46:33;18.60;99.90
15184;DHT22;7693;49.266;7.104;2022-09-09T13:54:08;18.40;99.90
15184;DHT22;7693;49.266;7.104;2022-09-09T13:56:35;18.30;99.90
15184;DHT22;7693;49.266;7.104;2022-09-09T13:59:02;18.30;99.90
15184;DHT22;7693;49.266;7.104;2022-09-09T14:01:28;18.30;99.90
15184;DHT22;7693;49.266;7.104;2022-09-09T14:03:54;18.40;99.90
15184;DHT22;7693;49.266;7.104;2022-09-09T14:06:20;18.50;99.90
15184;DHT22;7693;49.266;7.104;2022-09-09T14:08:47;18.60;99.90
15184;DHT22;7693;49.266;7.104;2022-09-09T14:11:14;18.70;99.90
15184;DHT22;7693;49.266;7.104;2022-09-09T14:13:40;18.80;99.90
15184;DHT22;7693;49.266;7.104;2022-09-09T14:16:05;18.90;99.90
15184;DHT22;7693;49.266;7.104;2022-09-09T14:18:31;18.90;99.90
15184;DHT22;7693;49.266;7.104;2022-09-09T14:20:57;19.00;99.90
15184;DHT22;7693;49.266;7.104;2022-09-09T14:23:24;19.00;99.90
15184;DHT22;7693;49.266;7.104;2022-09-09T14:25:50;19.00;99.90
15184;DHT22;7693;49.266;7.104;2022-09-09T14:28:16;18.90;99.90
15184;DHT22;7693;49.266;7.104;2022-09-09T14:30:43;18.80;99.90
15184;DHT22;7693;49.266;7.104;2022-09-09T14:33:11;18.90;99.90
15184;DHT22;7693;49.266;7.104;2022-09-09T14:35:37;19.00;99.90
15184;DHT22;7693;49.266;7.104;2022-09-09T14:38:04;19.10;99.90
15184;DHT22;7693;49.266;7.104;2022-09-09T14:40:30;19.10;99.90
15184;DHT22;7693;49.266;7.104;2022-09-09T14:42:56;19.10;99.90
15184;DHT22;7693;49.266;7.104;2022-09-09T14:45:23;18.90;99.90
15184;DHT22;7693;49.266;7.104;2022-09-09T14:47:50;18.90;99.90
15184;DHT22;7693;49.266;7.104;2022-09-09T14:50:17;19.20;99.90
15184;DHT22;7693;49.266;7.104;2022-09-09T14:52:43;19.50;99.90
15184;DHT22;7693;49.266;7.104;2022-09-09T14:55:08;19.70;99.90
15184;DHT22;7693;49.266;7.104;2022-09-09T14:57:34;19.90;99.90
15184;DHT22;7693;49.266;7.104;2022-09-09T15:00:02;20.00;99.90
15184;DHT22;7693;49.266;7.104;2022-09-09T15:02:28;20.10;99.90
15184;DHT22;7693;49.266;7.104;2022-09-09T15:04:55;20.10;99.90
15184;DHT22;7693;49.266;7.104;2022-09-09T15:07:22;20.30;99.90
15184;DHT22;7693;49.266;7.104;2022-09-09T15:09:48;20.40;99.90
15184;DHT22;7693;49.266;7.104;2022-09-09T17:48:09;16.20;99.90
15184;DHT22;7693;49.266;7.104;2022-09-09T17:50:35;16.20;99.90
15184;DHT22;7693;49.266;7.104;2022-09-09T17:53:01;16.20;99.90
15184;DHT22;7693;49.266;7.104;2022-09-09T17:55:27;16.20;99.90
15184;DHT22;7693;49.266;7.104;2022-09-09T17:57:53;16.20;99.90
15184;DHT22;7693;49.266;7.104;2022-09-09T18:00:18;16.30;99.90
15184;DHT22;7693;49.266;7.104;2022-09-09T18:02:44;16.30;99.90
15184;DHT22;7693;49.266;7.104;2022-09-09T18:05:10;16.30;99.90
15184;DHT22;7693;49.266;7.104;2022-09-09T18:07:35;16.30;99.90
15184;DHT22;7693;49.266;7.104;2022-09-09T18:10:01;16.30;99.90
15184;DHT22;7693;49.266;7.104;2022-09-09T18:12:27;16.30;99.90
15184;DHT22;7693;49.266;7.104;2022-09-09T18:14:54;16.30;99.90
15184;DHT22;7693;49.266;7.104;2022-09-09T18:17:20;16.40;99.90
15184;DHT22;7693;49.266;7.104;2022-09-09T18:19:45;16.40;99.90
15184;DHT22;7693;49.266;7.104;2022-09-09T18:22:11;16.30;99.90
15184;DHT22;7693;49.266;7.104;2022-09-09T18:24:36;16.30;99.90
15184;DHT22;7693;49.266;7.104;2022-09-09T18:27:02;16.30;99.90
15184;DHT22;7693;49.266;7.104;2022-09-09T18:29:28;16.30;99.90
15184;DHT22;7693;49.266;7.104;2022-09-09T18:31:54;16.30;99.90
15184;DHT22;7693;49.266;7.104;2022-09-09T18:34:20;16.30;99.90
15184;DHT22;7693;49.266;7.104;2022-09-09T18:36:51;16.30;99.90
15184;DHT22;7693;49.266;7.104;2022-09-09T18:39:18;16.30;99.90
15184;DHT22;7693;49.266;7.104;2022-09-09T18:41:47;16.30;99.90
15184;DHT22;7693;49.266;7.104;2022-09-09T18:44:16;16.30;99.90
15184;DHT22;7693;49.266;7.104;2022-09-09T18:46:43;16.30;99.90
15184;DHT22;7693;49.266;7.104;2022-09-09T18:49:09;16.30;99.90
15184;DHT22;7693;49.266;7.104;2022-09-09T18:51:41;16.30;99.90
15184;DHT22;7693;49.266;7.104;2022-09-09T18:54:12;16.30;99.90
15184;DHT22;7693;49.266;7.104;2022-09-09T18:56:38;16.20;99.90
15184;DHT22;7693;49.266;7.104;2022-09-09T18:59:07;16.30;99.90
15184;DHT22;7693;49.266;7.104;2022-09-09T19:01:35;16.30;99.90
15184;DHT22;7693;49.266;7.104;2022-09-09T19:04:02;16.30;99.90
15184;DHT22;7693;49.266;7.104;2022-09-09T19:06:30;16.20;99.90
15184;DHT22;7693;49.266;7.104;2022-09-09T19:08:56;16.20;99.90
15184;DHT22;7693;49.266;7.104;2022-09-09T19:11:24;16.20;99.90
15184;DHT22;7693;49.266;7.104;2022-09-09T19:14:01;16.20;99.90
15184;DHT22;7693;49.266;7.104;2022-09-09T19:16:28;16.20;99.90
15184;DHT22;7693;49.266;7.104;2022-09-09T19:18:57;16.20;99.90
15184;DHT22;7693;49.266;7.104;2022-09-09T19:21:26;16.20;99.90
15184;DHT22;7693;49.266;7.104;2022-09-09T19:24:01;16.20;99.90
15184;DHT22;7693;49.266;7.104;2022-09-09T19:26:30;16.20;99.90
15184;DHT22;7693;49.266;7.104;2022-09-09T19:28:59;16.20;99.90
15184;DHT22;7693;49.266;7.104;2022-09-09T19:31:26;16.20;99.90
15184;DHT22;7693;49.266;7.104;2022-09-09T19:33:53;16.10;99.90
15184;DHT22;7693;49.266;7.104;2022-09-09T19:36:20;16.10;99.90
15184;DHT22;7693;49.266;7.104;2022-09-09T19:38:46;16.10;99.90
15184;DHT22;7693;49.266;7.104;2022-09-09T19:41:16;16.00;99.90
15184;DHT22;7693;49.266;7.104;2022-09-09T19:43:43;16.00;99.90
15184;DHT22;7693;49.266;7.104;2022-09-09T19:46:11;16.00;99.90
15184;DHT22;7693;49.266;7.104;2022-09-09T19:48:38;16.00;99.90
15184;DHT22;7693;49.266;7.104;2022-09-09T19:51:08;16.00;99.90
15184;DHT22;7693;49.266;7.104;2022-09-09T19:53:39;16.00;99.90
15184;DHT22;7693;49.266;7.104;2022-09-09T19:56:06;16.00;99.90
15184;DHT22;7693;49.266;7.104;2022-09-09T19:58:34;16.00;99.90
15184;DHT22;7693;49.266;7.104;2022-09-09T20:01:06;16.00;99.90
15184;DHT22;7693;49.266;7.104;2022-09-09T20:03:34;15.90;99.90
15184;DHT22;7693;49.266;7.104;2022-09-09T20:06:00;15.90;99.90
15184;DHT22;7693;49.266;7.104;2022-09-09T20:08:26;15.90;99.90
15184;DHT22;7693;49.266;7.104;2022-09-09T20:10:54;15.90;99.90
15184;DHT22;7693;49.266;7.104;2022-09-09T20:13:21;15.90;99.90
15184;DHT22;7693;49.266;7.104;2022-09-09T20:18:22;16.00;99.90
15184;DHT22;7693;49.266;7.104;2022-09-09T20:20:48;15.90;99.90
15184;DHT22;7693;49.266;7.104;2022-09-09T20:23:14;15.90;99.90
15184;DHT22;7693;49.266;7.104;2022-09-09T20:25:42;15.90;99.90
15184;DHT22;7693;49.266;7.104;2022-09-09T20:28:08;15.90;99.90
15184;DHT22;7693;49.266;7.104;2022-09-09T20:30:33;15.90;99.90
15184;DHT22;7693;49.266;7.104;2022-09-09T20:33:02;15.80;99.90
15184;DHT22;7693;49.266;7.104;2022-09-09T20:35:29;15.80;99.90
15184;DHT22;7693;49.266;7.104;2022-09-09T20:37:55;15.80;99.90
15184;DHT22;7693;49.266;7.104;2022-09-09T20:40:21;15.80;99.90
15184;DHT22;7693;49.266;7.104;2022-09-09T20:42:46;15.80;99.90
15184;DHT22;7693;49.266;7.104;2022-09-09T20:45:12;15.70;99.90
15184;DHT22;7693;49.266;7.104;2022-09-09T20:47:40;15.70;99.90
15184;DHT22;7693;49.266;7.104;2022-09-09T20:50:06;15.70;99.90
15184;DHT22;7693;49.266;7.104;2022-09-09T20:52:32;15.70;99.90
15184;DHT22;7693;49.266;7.104;2022-09-09T20:54:57;15.70;99.90
15184;DHT22;7693;49.266;7.104;2022-09-09T20:57:23;15.60;99.90
15184;DHT22;7693;49.266;7.104;2022-09-09T20:59:49;15.60;99.90
15184;DHT22;7693;49.266;7.104;2022-09-09T21:02:16;15.60;99.90
15184;DHT22;7693;49.266;7.104;2022-09-09T21:04:42;15.60;99.90
15184;DHT22;7693;49.266;7.104;2022-09-09T21:07:10;15.60;99.90
15184;DHT22;7693;49.266;7.104;2022-09-09T21:09:36;15.60;99.90
15184;DHT22;7693;49.266;7.104;2022-09-09T21:12:01;15.60;99.90
15184;DHT22;7693;49.266;7.104;2022-09-09T21:14:27;15.50;99.90
15184;DHT22;7693;49.266;7.104;2022-09-09T21:16:53;15.50;99.90
15184;DHT22;7693;49.266;7.104;2022-09-09T21:19:19;15.50;99.90
15184;DHT22;7693;49.266;7.104;2022-09-09T21:21:44;15.40;99.90
15184;DHT22;7693;49.266;7.104;2022-09-09T21:24:12;15.40;99.90
15184;DHT22;7693;49.266;7.104;2022-09-09T21:26:38;15.40;99.90
15184;DHT22;7693;49.266;7.104;2022-09-09T21:29:04;15.30;99.90
15184;DHT22;7693;49.266;7.104;2022-09-09T21:31:30;15.30;99.90
15184;DHT22;7693;49.266;7.104;2022-09-09T21:33:56;15.30;99.90
15184;DHT22;7693;49.266;7.104;2022-09-09T21:36:22;15.30;99.90
15184;DHT22;7693;49.266;7.104;2022-09-09T21:38:48;15.30;99.90
15184;DHT22;7693;49.266;7.104;2022-09-09T21:41:15;15.30;99.90
15184;DHT22;7693;49.266;7.104;2022-09-09T21:43:42;15.30;99.90
15184;DHT22;7693;49.266;7.104;2022-09-09T21:46:10;15.20;99.90
15184;DHT22;7693;49.266;7.104;2022-09-09T21:48:36;15.20;99.90
15184;DHT22;7693;49.266;7.104;2022-09-09T21:51:04;15.20;99.90
15184;DHT22;7693;49.266;7.104;2022-09-09T21:53:30;15.20;99.90
15184;DHT22;7693;49.266;7.104;2022-09-09T21:56:06;15.10;99.90
15184;DHT22;7693;49.266;7.104;2022-09-09T21:58:34;15.10;99.90
15184;DHT22;7693;49.266;7.104;2022-09-09T22:01:00;15.10;99.90
15184;DHT22;7693;49.266;7.104;2022-09-09T22:03:26;15.10;99.90
15184;DHT22;7693;49.266;7.104;2022-09-09T22:05:52;15.10;99.90
